Time;durP1;ratioP1;P1;durP2;ratioP2;P2;SDS_P1;SDS_P2;PMS_P1;PMS_P2;Temp;Humidity;BMP_temperature;BMP_pressure;BME280_temperature;BME280_humidity;BME280_pressure;Samples;Min_cycle;Max_cycle;Signal;HPM_P1;HPM_P2
2021/06/20 00:00:15;;;;;;;9.95;8.50;;;25.10;99.90;;;;;;5054362;28;20155;-71
2021/06/20 00:02:41;;;;;;;11.68;8.80;;;25.10;99.90;;;;;;5054468;28;20510;-71
2021/06/20 00:05:10;;;;;;;13.35;9.10;;;25.10;99.90;;;;;;5054234;28;20029;-71
2021/06/20 00:07:36;;;;;;;12.23;9.13;;;25.00;99.90;;;;;;5054485;28;20013;-71
2021/06/20 00:10:04;;;;;;;14.23;9.52;;;25.00;99.90;;;;;;5054074;28;20025;-71
2021/06/20 00:12:29;;;;;;;13.50;9.50;;;24.90;99.90;;;;;;5036569;28;20055;-72
2021/06/20 00:14:55;;;;;;;11.35;9.30;;;24.90;99.90;;;;;;5032932;28;20690;-70
2021/06/20 00:17:20;;;;;;;10.32;9.23;;;24.90;99.90;;;;;;5049250;28;20040;-72
2021/06/20 00:19:46;;;;;;;14.57;8.43;;;24.90;99.90;;;;;;5008188;28;20046;-72
2021/06/20 00:22:12;;;;;;;11.30;9.48;;;24.90;99.90;;;;;;5030452;28;20426;-71
2021/06/20 00:24:39;;;;;;;10.52;9.05;;;24.90;99.90;;;;;;5028019;28;20506;-71
2021/06/20 00:27:05;;;;;;;14.77;8.63;;;24.90;99.90;;;;;;5054454;28;20447;-71
2021/06/20 00:29:30;;;;;;;15.48;9.73;;;24.50;99.90;;;;;;5041517;28;20053;-71
2021/06/20 00:31:56;;;;;;;13.05;9.57;;;24.20;99.90;;;;;;5048208;28;20434;-71
2021/06/20 00:34:22;;;;;;;14.77;9.85;;;24.30;99.90;;;;;;5047211;28;20441;-71
2021/06/20 00:36:48;;;;;;;12.65;9.93;;;24.30;99.90;;;;;;5036276;28;20036;-71
2021/06/20 00:39:14;;;;;;;12.82;9.35;;;24.30;99.90;;;;;;5035725;28;20022;-72
2021/06/20 00:41:40;;;;;;;14.95;9.48;;;24.30;99.90;;;;;;5022794;28;20377;-72
2021/06/20 00:44:05;;;;;;;18.02;9.57;;;24.40;99.90;;;;;;5053519;28;20032;-71
2021/06/20 00:46:31;;;;;;;11.70;10.00;;;24.50;99.90;;;;;;5035450;28;20612;-71
2021/06/20 00:48:56;;;;;;;14.18;9.50;;;24.50;99.90;;;;;;5035587;28;20040;-71
2021/06/20 00:51:22;;;;;;;15.07;9.85;;;24.50;99.90;;;;;;5053253;28;20040;-71
2021/06/20 00:53:48;;;;;;;11.65;9.45;;;24.40;99.90;;;;;;5053276;28;20029;-71
2021/06/20 00:56:14;;;;;;;12.00;9.30;;;24.40;99.90;;;;;;5053222;28;20039;-71
2021/06/20 00:58:42;;;;;;;12.43;9.93;;;24.30;99.90;;;;;;5040535;28;20104;-71
2021/06/20 01:01:08;;;;;;;14.27;9.52;;;24.30;99.90;;;;;;5052826;28;20490;-71
2021/06/20 01:03:33;;;;;;;12.82;8.90;;;24.10;99.90;;;;;;5053267;28;20036;-71
2021/06/20 01:06:00;;;;;;;14.80;9.77;;;24.10;99.90;;;;;;5077935;22;20047;-73
2021/06/20 01:08:26;;;;;;;10.50;8.98;;;24.20;99.90;;;;;;5052022;28;20025;-74
2021/06/20 01:10:52;;;;;;;11.23;9.55;;;24.10;99.90;;;;;;5051796;28;20021;-73
2021/06/20 01:13:18;;;;;;;11.13;9.43;;;24.10;99.90;;;;;;5053258;28;20382;-74
2021/06/20 01:15:46;;;;;;;10.90;9.52;;;24.00;99.90;;;;;;5052714;28;20498;-75
2021/06/20 01:18:12;;;;;;;13.75;9.48;;;24.00;99.90;;;;;;5052801;28;20018;-74
2021/06/20 01:20:39;;;;;;;11.60;9.93;;;23.90;99.90;;;;;;5052618;28;20105;-74
2021/06/20 01:23:05;;;;;;;12.00;9.55;;;23.80;99.90;;;;;;5052699;28;20385;-74
2021/06/20 01:25:31;;;;;;;12.43;10.25;;;23.80;99.90;;;;;;5052538;28;20494;-74
2021/06/20 01:28:03;;;;;;;13.55;8.88;;;23.80;99.90;;;;;;5052630;28;20108;-74
2021/06/20 01:30:31;;;;;;;12.32;10.38;;;23.70;99.90;;;;;;5052538;28;20025;-76
2021/06/20 01:32:59;;;;;;;13.38;10.48;;;23.60;99.90;;;;;;5052550;28;20025;-75
2021/06/20 01:35:25;;;;;;;11.32;9.68;;;23.50;99.90;;;;;;5050980;28;20112;-74
2021/06/20 01:37:54;;;;;;;12.32;9.90;;;23.50;99.90;;;;;;5052303;28;20057;-74
2021/06/20 01:40:21;;;;;;;11.68;9.82;;;23.50;99.90;;;;;;5052129;28;20163;-75
2021/06/20 01:42:46;;;;;;;11.45;9.60;;;23.50;99.90;;;;;;5052384;28;20029;-75
2021/06/20 01:45:15;;;;;;;11.05;9.82;;;23.60;99.90;;;;;;5060948;28;20416;-74
2021/06/20 01:47:40;;;;;;;15.88;9.82;;;23.50;99.90;;;;;;5069923;28;20500;-74
2021/06/20 01:50:09;;;;;;;11.80;10.00;;;23.40;99.90;;;;;;5052052;28;20025;-74
2021/06/20 01:52:35;;;;;;;11.07;9.55;;;23.40;99.90;;;;;;5052045;28;20017;-74
2021/06/20 01:55:01;;;;;;;11.00;9.80;;;23.30;99.90;;;;;;5052049;28;20032;-74
2021/06/20 01:57:29;;;;;;;13.07;10.20;;;23.20;99.90;;;;;;5052303;28;20025;-74
2021/06/20 01:59:57;;;;;;;10.50;9.48;;;23.30;99.90;;;;;;5051921;28;20056;-74
2021/06/20 02:02:24;;;;;;;11.07;10.02;;;23.10;99.90;;;;;;5051935;28;20506;-74
2021/06/20 02:04:50;;;;;;;13.90;11.23;;;23.20;99.90;;;;;;5051712;28;20065;-74
2021/06/20 02:07:16;;;;;;;13.20;10.20;;;23.20;99.90;;;;;;5050691;28;20025;-74
2021/06/20 02:09:42;;;;;;;17.02;10.10;;;23.10;99.90;;;;;;5051805;28;20083;-76
2021/06/20 02:12:09;;;;;;;11.90;10.25;;;23.00;99.90;;;;;;5065354;28;20039;-76
2021/06/20 02:14:36;;;;;;;14.00;9.93;;;22.90;99.90;;;;;;5060669;28;20116;-76
2021/06/20 02:17:28;;;;;;;10.93;9.75;;;22.90;99.90;;;;;;5068550;28;20566;-76
2021/06/20 02:20:00;;;;;;;11.25;10.00;;;22.80;99.90;;;;;;5064025;28;20119;-75
2021/06/20 02:22:30;;;;;;;11.23;10.05;;;22.80;99.90;;;;;;5071810;28;20389;-75
2021/06/20 02:24:56;;;;;;;12.38;10.35;;;22.80;99.90;;;;;;5055499;28;20021;-75
2021/06/20 02:27:21;;;;;;;13.02;10.02;;;22.70;99.90;;;;;;5051868;28;20390;-74
2021/06/20 02:29:51;;;;;;;13.43;10.10;;;22.60;99.90;;;;;;5051559;28;20029;-74
2021/06/20 02:32:17;;;;;;;14.55;10.00;;;22.70;99.90;;;;;;5051831;28;20521;-74
2021/06/20 02:34:43;;;;;;;14.45;10.07;;;22.70;99.90;;;;;;5065100;28;20473;-74
2021/06/20 02:37:11;;;;;;;13.07;10.77;;;22.70;99.90;;;;;;5051581;28;20036;-74
2021/06/20 02:39:37;;;;;;;11.75;10.55;;;22.70;99.90;;;;;;5051513;28;20025;-74
2021/06/20 02:42:04;;;;;;;11.88;10.82;;;22.50;99.90;;;;;;5061010;28;20081;-74
2021/06/20 02:44:30;;;;;;;13.00;10.95;;;22.50;99.90;;;;;;5055453;28;20501;-73
2021/06/20 02:46:59;;;;;;;13.35;12.10;;;22.40;99.90;;;;;;5060788;28;20042;-73
2021/06/20 02:49:25;;;;;;;15.23;12.50;;;22.10;99.90;;;;;;5074519;28;20021;-74
2021/06/20 02:51:51;;;;;;;17.33;12.82;;;22.10;99.90;;;;;;5074530;28;20025;-74
2021/06/20 02:54:17;;;;;;;13.20;11.80;;;22.00;99.90;;;;;;5060890;28;20021;-75
2021/06/20 02:56:42;;;;;;;15.25;12.15;;;22.10;99.90;;;;;;5065914;28;20034;-74
2021/06/20 02:59:08;;;;;;;14.65;12.32;;;22.30;99.90;;;;;;5069067;28;20021;-73
2021/06/20 03:01:34;;;;;;;12.48;11.15;;;22.30;99.90;;;;;;5055487;28;20037;-75
2021/06/20 03:03:59;;;;;;;13.85;11.50;;;22.40;99.90;;;;;;5071534;28;20017;-74
2021/06/20 03:06:25;;;;;;;14.80;12.25;;;22.50;99.90;;;;;;5064955;28;20067;-75
2021/06/20 03:08:51;;;;;;;13.48;12.05;;;22.20;99.90;;;;;;5068870;28;20024;-74
2021/06/20 03:11:19;;;;;;;13.32;11.68;;;22.00;99.90;;;;;;5064400;28;20074;-74
2021/06/20 03:13:45;;;;;;;16.17;12.23;;;22.20;99.90;;;;;;5061804;28;20029;-75
2021/06/20 03:16:10;;;;;;;15.45;11.98;;;22.40;99.90;;;;;;5066019;28;20033;-75
2021/06/20 03:18:36;;;;;;;15.90;11.73;;;22.40;99.90;;;;;;5067501;28;20036;-74
2021/06/20 03:21:01;;;;;;;14.80;11.82;;;22.20;99.90;;;;;;5064110;28;20024;-75
2021/06/20 03:23:27;;;;;;;16.17;11.80;;;22.30;99.90;;;;;;5059490;28;20025;-75
2021/06/20 03:25:52;;;;;;;15.73;11.82;;;22.50;99.90;;;;;;5063726;28;20165;-75
2021/06/20 03:28:18;;;;;;;14.98;11.93;;;22.70;99.90;;;;;;5073675;28;20141;-74
2021/06/20 03:30:43;;;;;;;17.13;12.35;;;22.50;99.90;;;;;;5074743;28;20032;-74
2021/06/20 03:33:09;;;;;;;14.75;12.10;;;22.30;99.90;;;;;;5074841;28;20032;-75
2021/06/20 03:35:35;;;;;;;13.73;11.18;;;22.20;99.90;;;;;;5066292;28;20375;-75
2021/06/20 03:38:00;;;;;;;12.30;11.02;;;22.40;99.90;;;;;;5069023;28;20119;-74
2021/06/20 03:40:26;;;;;;;15.95;12.48;;;22.60;99.90;;;;;;5065570;28;20139;-74
2021/06/20 03:42:51;;;;;;;16.55;12.40;;;22.40;99.90;;;;;;5054698;28;20029;-73
2021/06/20 03:45:17;;;;;;;14.02;12.52;;;21.90;99.90;;;;;;5054583;28;20086;-73
2021/06/20 03:47:43;;;;;;;13.77;12.07;;;21.90;99.90;;;;;;5054584;28;20025;-73
2021/06/20 03:50:09;;;;;;;14.05;11.88;;;22.20;99.90;;;;;;5054443;28;20454;-73
2021/06/20 03:52:36;;;;;;;16.42;12.50;;;22.30;99.90;;;;;;5054448;28;20029;-74
2021/06/20 03:55:02;;;;;;;14.98;11.85;;;22.00;99.90;;;;;;5054480;28;20375;-74
2021/06/20 03:57:28;;;;;;;16.88;12.20;;;22.20;99.90;;;;;;5069795;28;20051;-74
2021/06/20 03:59:54;;;;;;;15.75;12.88;;;22.40;99.90;;;;;;5065705;28;20033;-74
2021/06/20 04:02:19;;;;;;;15.25;11.63;;;22.40;99.90;;;;;;5054389;28;20068;-75
2021/06/20 04:04:45;;;;;;;15.27;12.73;;;22.40;99.90;;;;;;5062404;28;20115;-74
2021/06/20 04:07:12;;;;;;;15.43;13.15;;;22.50;99.90;;;;;;5058192;28;20029;-75
2021/06/20 04:09:42;;;;;;;17.10;13.82;;;22.50;99.90;;;;;;5052722;28;20422;-74
2021/06/20 04:12:13;;;;;;;17.85;13.65;;;22.30;99.90;;;;;;5054598;28;20029;-73
2021/06/20 04:14:39;;;;;;;18.98;13.55;;;22.40;99.90;;;;;;5054566;28;20029;-73
2021/06/20 04:17:05;;;;;;;19.17;13.23;;;22.40;99.90;;;;;;5054070;28;20035;-74
2021/06/20 04:19:31;;;;;;;14.45;12.98;;;22.20;99.90;;;;;;5053847;28;20044;-74
2021/06/20 04:21:57;;;;;;;17.70;12.75;;;22.20;99.90;;;;;;5054093;28;20459;-75
2021/06/20 04:24:22;;;;;;;15.65;13.27;;;22.40;99.90;;;;;;5063143;28;20529;-74
2021/06/20 04:26:48;;;;;;;17.85;13.55;;;22.60;99.90;;;;;;5060591;28;20021;-75
2021/06/20 04:29:14;;;;;;;15.15;13.55;;;22.80;99.90;;;;;;5064443;28;20033;-74
2021/06/20 04:31:40;;;;;;;16.13;13.60;;;22.90;99.90;;;;;;5052592;28;20364;-74
2021/06/20 04:34:06;;;;;;;16.13;12.63;;;23.00;99.90;;;;;;5043355;28;20029;-74
2021/06/20 04:36:31;;;;;;;14.27;12.77;;;23.10;99.90;;;;;;5065277;28;20024;-74
2021/06/20 04:38:58;;;;;;;15.05;13.05;;;23.20;99.90;;;;;;5064505;28;20087;-75
2021/06/20 04:41:24;;;;;;;15.70;14.00;;;23.40;99.90;;;;;;5057053;28;20021;-74
2021/06/20 04:46:22;;;;;;;15.48;13.27;;;23.10;99.90;;;;;;5069928;28;20037;-75
2021/06/20 04:48:53;;;;;;;15.90;13.70;;;22.90;99.90;;;;;;5064941;28;20031;-74
2021/06/20 04:51:19;;;;;;;14.55;12.73;;;23.00;99.90;;;;;;5054649;28;20469;-75
2021/06/20 04:53:44;;;;;;;15.35;13.35;;;23.30;99.90;;;;;;5053632;28;20052;-74
2021/06/20 04:56:10;;;;;;;15.85;13.25;;;23.40;99.90;;;;;;5065569;28;20655;-74
2021/06/20 04:58:36;;;;;;;19.88;13.05;;;23.50;99.90;;;;;;5053136;28;20017;-73
2021/06/20 05:01:02;;;;;;;15.25;13.57;;;23.60;99.90;;;;;;5053136;28;20021;-73
2021/06/20 05:03:28;;;;;;;15.07;13.50;;;23.80;99.90;;;;;;5063860;28;20480;-73
2021/06/20 05:05:53;;;;;;;16.20;13.10;;;23.80;99.90;;;;;;5072982;28;20032;-74
2021/06/20 05:08:19;;;;;;;16.27;13.25;;;23.80;99.90;;;;;;5071984;28;20028;-74
2021/06/20 05:10:44;;;;;;;15.40;13.13;;;23.70;99.90;;;;;;5067501;28;20378;-74
2021/06/20 05:13:10;;;;;;;15.85;13.23;;;23.70;99.90;;;;;;5053127;28;20475;-74
2021/06/20 05:15:35;;;;;;;17.35;13.43;;;23.80;99.90;;;;;;5070615;28;20433;-74
2021/06/20 05:18:01;;;;;;;18.70;14.32;;;24.00;99.90;;;;;;5072983;28;20029;-75
2021/06/20 05:20:26;;;;;;;17.95;13.40;;;24.00;99.90;;;;;;5054907;28;20025;-75
2021/06/20 05:22:52;;;;;;;17.17;13.68;;;24.20;99.90;;;;;;5052951;28;20028;-75
2021/06/20 05:25:17;;;;;;;16.25;13.70;;;24.00;99.90;;;;;;5051418;28;20040;-75
2021/06/20 05:27:43;;;;;;;20.30;14.13;;;23.90;99.90;;;;;;5051598;28;20032;-73
2021/06/20 05:30:09;;;;;;;15.07;13.48;;;24.10;99.90;;;;;;5052528;28;20079;-73
2021/06/20 05:32:35;;;;;;;17.83;14.32;;;24.30;99.90;;;;;;5052373;28;20561;-71
2021/06/20 05:35:00;;;;;;;17.38;13.63;;;24.40;99.90;;;;;;5052611;28;20108;-71
2021/06/20 05:37:26;;;;;;;15.70;13.52;;;24.50;99.90;;;;;;5051246;28;20025;-71
2021/06/20 05:39:52;;;;;;;20.38;14.18;;;24.50;99.90;;;;;;5052249;28;20045;-71
2021/06/20 05:42:17;;;;;;;19.70;14.20;;;24.50;99.90;;;;;;5063488;28;20021;-74
2021/06/20 05:44:43;;;;;;;17.95;14.20;;;24.60;99.90;;;;;;5054756;28;20025;-74
2021/06/20 05:47:08;;;;;;;17.67;13.93;;;24.60;99.90;;;;;;5063205;28;20037;-73
2021/06/20 05:49:34;;;;;;;18.98;13.30;;;24.50;99.90;;;;;;5057695;28;20032;-73
2021/06/20 05:51:59;;;;;;;19.65;13.95;;;24.70;99.90;;;;;;5061477;28;20387;-73
2021/06/20 05:54:25;;;;;;;19.02;13.70;;;24.70;99.90;;;;;;5050973;28;20083;-73
2021/06/20 05:56:51;;;;;;;16.05;13.07;;;24.70;99.90;;;;;;5062799;28;20111;-74
2021/06/20 05:59:16;;;;;;;16.10;13.68;;;24.70;99.90;;;;;;5058437;28;20133;-73
2021/06/20 06:01:42;;;;;;;21.85;13.57;;;24.80;99.90;;;;;;5061980;28;20036;-73
2021/06/20 06:04:07;;;;;;;21.35;13.57;;;25.00;99.90;;;;;;5051928;28;20024;-73
2021/06/20 06:06:33;;;;;;;17.20;13.85;;;25.20;99.90;;;;;;5062183;28;20214;-73
2021/06/20 06:08:59;;;;;;;19.08;14.50;;;25.20;99.90;;;;;;5058425;28;20055;-73
2021/06/20 06:11:24;;;;;;;19.20;13.23;;;25.20;99.90;;;;;;5062092;28;20033;-75
2021/06/20 06:13:50;;;;;;;19.35;13.15;;;25.10;99.90;;;;;;5057598;28;20394;-73
2021/06/20 06:16:16;;;;;;;20.85;14.25;;;25.10;99.90;;;;;;5071756;28;20033;-73
2021/06/20 06:18:41;;;;;;;21.13;13.45;;;25.30;99.90;;;;;;5068516;28;20033;-73
2021/06/20 06:21:07;;;;;;;22.58;13.68;;;25.60;99.90;;;;;;5061702;28;20020;-73
2021/06/20 06:23:32;;;;;;;22.75;11.77;;;25.50;99.90;;;;;;5056356;28;20024;-73
2021/06/20 06:25:58;;;;;;;24.10;12.85;;;25.50;99.90;;;;;;5070494;28;20020;-73
2021/06/20 06:28:23;;;;;;;18.38;12.20;;;25.50;99.90;;;;;;5068848;28;20029;-73
2021/06/20 06:30:49;;;;;;;18.27;11.55;;;25.60;99.90;;;;;;5061375;28;20028;-74
2021/06/20 06:33:14;;;;;;;25.13;11.20;;;25.30;99.90;;;;;;5058465;28;20039;-73
2021/06/20 06:35:40;;;;;;;21.63;11.63;;;25.10;99.90;;;;;;5071597;28;20024;-73
2021/06/20 06:38:06;;;;;;;21.70;11.27;;;25.00;99.90;;;;;;5058171;28;20382;-73
2021/06/20 06:40:31;;;;;;;22.80;11.65;;;24.90;99.90;;;;;;5061620;28;20470;-73
2021/06/20 06:43:00;;;;;;;20.92;11.20;;;24.60;99.90;;;;;;5068242;28;20381;-73
2021/06/20 06:45:25;;;;;;;20.98;10.57;;;24.50;99.90;;;;;;5061741;28;20067;-73
2021/06/20 06:47:51;;;;;;;18.67;9.93;;;24.40;99.90;;;;;;5065057;28;20017;-74
2021/06/20 06:50:17;;;;;;;16.40;10.52;;;24.40;99.90;;;;;;5061072;28;20024;-73
2021/06/20 06:52:43;;;;;;;17.90;11.27;;;24.20;99.90;;;;;;5058187;28;20100;-73
2021/06/20 06:55:11;;;;;;;15.73;9.95;;;24.20;99.90;;;;;;5071544;28;20107;-73
2021/06/20 06:57:37;;;;;;;18.48;10.43;;;24.20;99.90;;;;;;5061728;28;20082;-73
2021/06/20 07:00:06;;;;;;;18.23;11.38;;;24.30;99.90;;;;;;5040368;28;20040;-73
2021/06/20 07:02:32;;;;;;;16.83;11.25;;;24.30;99.90;;;;;;5054150;28;20059;-73
2021/06/20 07:04:57;;;;;;;15.32;10.43;;;24.20;99.90;;;;;;5059685;28;20040;-73
2021/06/20 07:07:25;;;;;;;19.45;10.60;;;24.40;99.90;;;;;;5046844;28;20428;-73
2021/06/20 07:09:50;;;;;;;16.63;10.25;;;24.40;99.90;;;;;;5051228;28;20032;-73
2021/06/20 07:12:16;;;;;;;16.80;11.02;;;24.50;99.90;;;;;;5063712;28;20111;-74
2021/06/20 07:15:04;;;;;;;19.75;10.25;;;24.60;99.90;;;;;;5049743;28;20029;-73
2021/06/20 07:18:12;;;;;;;19.70;10.30;;;24.80;99.90;;;;;;5057492;28;20027;-73
2021/06/20 07:20:37;;;;;;;16.13;9.38;;;24.80;99.90;;;;;;4990393;28;20088;-73
2021/06/20 07:23:15;;;;;;;19.02;10.23;;;24.80;99.90;;;;;;5057121;28;20048;-73
2021/06/20 07:25:49;;;;;;;17.55;10.35;;;24.80;99.90;;;;;;5047579;28;20029;-74
2021/06/20 07:28:21;;;;;;;19.30;8.82;;;25.10;99.90;;;;;;5050818;28;20024;-73
2021/06/20 07:30:49;;;;;;;18.17;9.30;;;25.40;99.90;;;;;;5052835;28;20025;-73
2021/06/20 07:33:16;;;;;;;18.67;9.68;;;25.10;99.90;;;;;;5059157;28;20498;-73
2021/06/20 07:35:41;;;;;;;14.40;8.32;;;25.30;99.90;;;;;;5055801;28;20036;-73
2021/06/20 07:38:39;;;;;;;17.38;9.15;;;25.50;99.90;;;;;;5065976;28;20025;-73
2021/06/20 07:41:05;;;;;;;17.45;7.93;;;25.60;99.90;;;;;;5050609;28;20108;-73
2021/06/20 07:43:50;;;;;;;17.08;7.88;;;25.50;99.90;;;;;;5061737;28;20104;-75
2021/06/20 07:46:16;;;;;;;19.83;8.20;;;25.50;99.90;;;;;;5046483;28;20466;-72
2021/06/20 07:48:41;;;;;;;18.50;8.10;;;25.70;99.90;;;;;;5066246;28;20060;-70
2021/06/20 07:54:18;;;;;;;18.10;7.88;;;25.60;99.90;;;;;;5032291;28;20113;-71
2021/06/20 07:56:43;;;;;;;16.92;7.53;;;25.70;99.90;;;;;;5061377;28;20029;-70
2021/06/20 07:59:09;;;;;;;15.13;7.20;;;25.50;99.90;;;;;;5068893;28;20531;-71
2021/06/20 08:01:35;;;;;;;14.68;7.78;;;25.50;99.90;;;;;;5054313;28;20033;-72
2021/06/20 08:04:00;;;;;;;21.10;7.80;;;25.50;99.90;;;;;;5062619;28;20028;-71
2021/06/20 08:06:26;;;;;;;14.63;7.53;;;25.50;99.90;;;;;;5065075;28;20024;-71
2021/06/20 08:08:55;;;;;;;13.70;7.32;;;25.90;99.90;;;;;;5069970;28;20055;-71
2021/06/20 08:11:26;;;;;;;17.33;7.05;;;26.20;99.90;;;;;;5038205;28;20064;-71
2021/06/20 08:13:52;;;;;;;17.42;6.82;;;26.50;99.90;;;;;;5041555;28;20036;-71
2021/06/20 08:16:18;;;;;;;15.77;7.50;;;26.20;99.90;;;;;;5040638;28;20079;-71
2021/06/20 08:18:43;;;;;;;15.30;7.85;;;25.90;99.90;;;;;;5055133;28;20817;-71
2021/06/20 08:21:09;;;;;;;16.30;6.90;;;25.70;99.90;;;;;;5038898;28;20053;-71
2021/06/20 08:23:35;;;;;;;11.82;6.90;;;25.80;99.90;;;;;;5055510;28;20521;-71
2021/06/20 08:26:01;;;;;;;14.50;7.18;;;25.90;99.90;;;;;;5064573;28;20029;-71
2021/06/20 08:28:26;;;;;;;19.35;7.13;;;26.00;99.90;;;;;;5059786;28;20082;-71
2021/06/20 08:30:52;;;;;;;17.45;7.63;;;26.10;99.90;;;;;;5071305;28;20090;-71
2021/06/20 08:33:17;;;;;;;15.20;7.30;;;26.20;99.90;;;;;;5066843;28;20505;-71
2021/06/20 08:35:43;;;;;;;16.45;7.13;;;26.40;99.90;;;;;;5052013;28;20030;-71
2021/06/20 08:38:08;;;;;;;12.30;6.07;;;26.50;99.90;;;;;;5059208;28;20043;-70
2021/06/20 08:40:34;;;;;;;13.63;5.82;;;26.50;99.90;;;;;;5054359;28;20021;-71
2021/06/20 08:42:59;;;;;;;19.13;6.28;;;26.40;99.90;;;;;;5070190;28;20017;-71
2021/06/20 08:45:26;;;;;;;14.75;5.90;;;26.40;99.90;;;;;;5058201;28;20417;-71
2021/06/20 08:47:53;;;;;;;13.43;5.80;;;26.30;99.90;;;;;;5054571;28;20107;-71
2021/06/20 08:50:19;;;;;;;13.85;5.72;;;26.90;99.90;;;;;;5053496;28;20471;-71
2021/06/20 08:52:45;;;;;;;10.07;5.03;;;26.60;99.90;;;;;;5056700;28;20037;-71
2021/06/20 08:55:12;;;;;;;11.50;4.45;;;26.80;99.90;;;;;;5055803;28;20028;-71
2021/06/20 08:57:41;;;;;;;9.95;3.42;;;26.70;99.90;;;;;;5057402;28;20032;-71
2021/06/20 09:00:17;;;;;;;10.13;3.75;;;26.20;99.90;;;;;;5059564;28;20020;-72
2021/06/20 09:02:43;;;;;;;12.07;4.22;;;26.00;99.90;;;;;;5054962;28;20025;-71
2021/06/20 09:05:10;;;;;;;7.95;4.53;;;25.60;99.90;;;;;;5058217;28;20032;-71
2021/06/20 09:07:38;;;;;;;12.00;4.68;;;25.60;99.90;;;;;;5045421;28;20036;-71
2021/06/20 09:10:17;;;;;;;7.60;3.92;;;25.60;99.90;;;;;;5054430;28;20111;-71
2021/06/20 09:12:43;;;;;;;9.00;4.28;;;25.60;99.90;;;;;;5053182;28;20060;-71
2021/06/20 09:15:09;;;;;;;11.70;4.80;;;25.60;99.90;;;;;;5059532;28;20114;-71
2021/06/20 09:17:36;;;;;;;10.05;4.57;;;25.40;99.90;;;;;;5069196;28;20035;-71
2021/06/20 09:20:05;;;;;;;10.80;4.07;;;25.50;99.90;;;;;;5071086;28;20035;-71
2021/06/20 09:22:31;;;;;;;11.38;3.78;;;25.60;99.90;;;;;;5062929;28;20025;-71
2021/06/20 09:25:06;;;;;;;8.93;3.17;;;25.50;99.90;;;;;;5055398;28;20104;-71
2021/06/20 09:27:32;;;;;;;7.80;3.22;;;25.50;99.90;;;;;;5066858;28;20112;-71
2021/06/20 09:30:12;;;;;;;7.25;3.65;;;25.40;99.90;;;;;;5056858;28;20057;-71
2021/06/20 09:32:40;;;;;;;8.95;3.30;;;25.30;99.90;;;;;;5059516;28;20025;-71
2021/06/20 09:35:06;;;;;;;7.97;3.03;;;25.50;99.90;;;;;;5058644;28;20108;-71
2021/06/20 09:37:32;;;;;;;6.63;2.63;;;25.40;99.90;;;;;;5060093;28;20537;-71
2021/06/20 09:39:57;;;;;;;7.93;2.80;;;25.50;99.90;;;;;;5051929;28;20028;-72
2021/06/20 09:42:23;;;;;;;7.75;2.67;;;25.50;99.90;;;;;;5053068;28;20489;-71
2021/06/20 09:44:53;;;;;;;6.43;3.08;;;25.40;99.90;;;;;;5056369;28;20017;-71
2021/06/20 09:47:21;;;;;;;8.88;3.22;;;25.40;99.90;;;;;;5051738;28;20120;-71
2021/06/20 09:49:49;;;;;;;9.05;3.30;;;25.30;99.90;;;;;;5044998;28;20108;-71
2021/06/20 09:52:28;;;;;;;8.73;4.57;;;25.30;99.90;;;;;;5052394;28;20490;-71
2021/06/20 09:54:56;;;;;;;9.82;6.57;;;25.30;99.90;;;;;;5052567;28;20033;-71
2021/06/20 09:57:22;;;;;;;21.58;14.23;;;25.50;99.90;;;;;;5057380;28;20025;-71
2021/06/20 10:00:03;;;;;;;12.32;6.63;;;25.70;99.90;;;;;;5053614;28;20021;-71
2021/06/20 10:02:30;;;;;;;13.98;3.42;;;25.60;99.90;;;;;;5064469;28;20078;-71
2021/06/20 10:04:57;;;;;;;9.23;3.58;;;25.70;99.90;;;;;;5052109;28;20114;-71
2021/06/20 10:07:27;;;;;;;7.22;3.10;;;25.60;99.90;;;;;;5053053;28;20029;-71
2021/06/20 10:09:54;;;;;;;7.97;3.97;;;25.80;99.90;;;;;;5051499;28;20387;-71
2021/06/20 10:12:20;;;;;;;12.55;4.90;;;25.70;99.90;;;;;;5052908;28;20082;-71
2021/06/20 10:14:46;;;;;;;10.60;4.65;;;25.70;99.90;;;;;;5061369;28;20025;-71
2021/06/20 10:17:16;;;;;;;7.85;3.80;;;25.70;99.90;;;;;;5054298;28;20095;-71
2021/06/20 10:19:50;;;;;;;7.57;3.40;;;25.60;99.90;;;;;;5053936;28;20029;-71
2021/06/20 10:22:17;;;;;;;8.40;3.28;;;25.50;99.90;;;;;;5050523;28;20021;-71
2021/06/20 10:24:52;;;;;;;7.68;3.72;;;25.50;99.90;;;;;;5053113;28;20025;-71
2021/06/20 10:27:30;;;;;;;7.47;3.88;;;25.30;99.90;;;;;;5055341;28;20551;-71
2021/06/20 10:29:58;;;;;;;5.78;3.15;;;25.20;99.90;;;;;;5055139;28;20029;-71
2021/06/20 10:32:26;;;;;;;7.90;3.20;;;25.20;99.90;;;;;;5037913;28;20079;-71
2021/06/20 10:34:58;;;;;;;5.10;3.30;;;25.00;99.90;;;;;;5067486;28;20581;-71
2021/06/20 10:37:26;;;;;;;5.55;3.47;;;25.00;99.90;;;;;;5060404;28;20107;-71
2021/06/20 10:39:55;;;;;;;9.68;3.58;;;25.10;99.90;;;;;;5051383;28;20025;-71
2021/06/20 10:42:38;;;;;;;11.25;3.80;;;25.20;99.90;;;;;;5053829;28;20096;-71
2021/06/20 10:45:09;;;;;;;8.20;3.53;;;25.20;99.90;;;;;;5050611;28;20021;-72
2021/06/20 10:47:40;;;;;;;10.35;3.28;;;25.40;99.90;;;;;;5052311;28;20024;-71
2021/06/20 10:50:11;;;;;;;6.15;3.20;;;25.20;99.90;;;;;;5051594;28;20029;-71
2021/06/20 10:52:43;;;;;;;10.45;3.33;;;25.10;99.90;;;;;;5055569;28;20025;-71
2021/06/20 10:55:16;;;;;;;9.40;3.17;;;24.90;99.90;;;;;;5056310;28;20044;-71
2021/06/20 10:57:43;;;;;;;7.65;3.47;;;24.90;99.90;;;;;;5060258;28;20065;-71
2021/06/20 11:00:09;;;;;;;7.13;3.97;;;25.10;99.90;;;;;;5051110;28;20036;-71
2021/06/20 11:02:35;;;;;;;6.25;3.30;;;25.90;99.90;;;;;;5053826;28;20016;-71
2021/06/20 11:05:03;;;;;;;4.68;3.38;;;26.50;99.90;;;;;;5057545;28;20036;-71
2021/06/20 11:07:29;;;;;;;6.80;3.45;;;26.80;99.90;;;;;;5055876;28;20024;-71
2021/06/20 11:09:57;;;;;;;7.60;3.15;;;26.50;99.90;;;;;;5058332;28;20033;-72
2021/06/20 11:12:25;;;;;;;3.67;2.88;;;26.60;99.90;;;;;;5056831;28;20098;-71
2021/06/20 11:14:54;;;;;;;5.53;3.40;;;26.10;99.90;;;;;;5061216;28;20021;-71
2021/06/20 11:17:20;;;;;;;8.75;3.40;;;26.20;99.90;;;;;;5056844;28;20474;-71
2021/06/20 11:19:45;;;;;;;4.72;3.10;;;26.00;99.90;;;;;;5055694;28;20032;-71
2021/06/20 11:22:14;;;;;;;7.00;3.20;;;25.90;99.90;;;;;;5066769;28;20021;-71
2021/06/20 11:24:42;;;;;;;8.02;3.28;;;25.50;99.90;;;;;;5064971;28;20044;-71
2021/06/20 11:27:13;;;;;;;6.47;2.97;;;25.60;99.90;;;;;;5055118;28;20029;-71
2021/06/20 11:29:42;;;;;;;5.78;3.15;;;25.50;99.90;;;;;;5055310;28;20508;-71
2021/06/20 11:32:33;;;;;;;6.53;3.17;;;25.80;99.90;;;;;;5055584;28;20091;-71
2021/06/20 11:35:15;;;;;;;6.45;2.80;;;25.70;99.90;;;;;;5054128;28;20048;-71
2021/06/20 11:37:49;;;;;;;3.95;2.65;;;25.90;99.90;;;;;;5039491;28;20032;-71
2021/06/20 11:40:20;;;;;;;4.95;2.70;;;25.70;99.90;;;;;;5054134;28;20499;-71
2021/06/20 11:42:51;;;;;;;4.55;2.58;;;25.70;99.90;;;;;;5056541;28;20104;-71
2021/06/20 11:45:19;;;;;;;5.22;3.20;;;25.70;99.90;;;;;;5061864;28;20017;-71
2021/06/20 11:47:50;;;;;;;4.85;3.10;;;26.20;99.90;;;;;;5061265;28;20457;-71
2021/06/20 11:50:18;;;;;;;5.93;2.85;;;26.30;99.90;;;;;;5054110;28;20071;-71
2021/06/20 11:52:50;;;;;;;6.13;2.63;;;26.30;99.90;;;;;;5054992;28;20032;-71
2021/06/20 11:55:20;;;;;;;4.55;2.63;;;26.60;99.90;;;;;;5062455;28;20028;-71
2021/06/20 11:57:47;;;;;;;6.88;2.65;;;26.50;99.90;;;;;;5070805;28;20039;-71
2021/06/20 12:00:15;;;;;;;6.70;3.20;;;26.30;99.90;;;;;;5072173;28;20017;-71
2021/06/20 12:02:41;;;;;;;5.82;2.85;;;26.60;99.90;;;;;;5056511;28;20054;-71
2021/06/20 12:05:12;;;;;;;5.32;2.83;;;26.50;99.90;;;;;;5053755;28;20112;-71
2021/06/20 12:07:38;;;;;;;8.75;3.50;;;26.40;99.90;;;;;;5059726;28;20434;-71
2021/06/20 12:10:04;;;;;;;3.75;2.55;;;26.10;99.90;;;;;;5058121;28;20240;-71
2021/06/20 12:12:32;;;;;;;4.43;2.97;;;25.80;99.90;;;;;;5058214;28;20032;-71
2021/06/20 12:15:00;;;;;;;7.93;3.20;;;25.70;99.90;;;;;;5051059;28;20057;-71
2021/06/20 12:17:28;;;;;;;7.30;3.08;;;25.90;99.90;;;;;;5052829;28;20033;-71
2021/06/20 12:19:54;;;;;;;6.22;3.17;;;25.90;99.90;;;;;;5057084;28;20497;-71
2021/06/20 12:22:21;;;;;;;7.22;3.55;;;25.60;99.90;;;;;;5052144;28;20053;-71
2021/06/20 12:24:49;;;;;;;7.60;2.92;;;25.40;99.90;;;;;;5054951;28;20036;-71
2021/06/20 12:27:37;;;;;;;5.97;2.60;;;25.30;99.90;;;;;;5057513;28;20155;-71
2021/06/20 12:30:13;;;;;;;6.18;2.72;;;25.40;99.90;;;;;;5058473;28;20394;-71
2021/06/20 12:32:39;;;;;;;5.10;2.80;;;25.60;99.90;;;;;;5053022;28;20028;-71
2021/06/20 12:35:05;;;;;;;7.93;2.90;;;25.70;99.90;;;;;;5059542;28;20048;-71
2021/06/20 12:37:40;;;;;;;6.78;2.90;;;25.90;99.90;;;;;;5061014;28;20033;-71
2021/06/20 12:40:11;;;;;;;7.35;3.03;;;25.60;99.90;;;;;;5054091;28;20024;-71
2021/06/20 12:42:48;;;;;;;6.00;3.03;;;25.30;99.90;;;;;;5045786;28;20018;-71